createdAt,value
2022-10-29T00:04:49.700Z,15.90
2022-10-29T00:09:51.387Z,15.50
2022-10-29T00:14:53.069Z,15.70
2022-10-29T00:19:54.785Z,15.60
2022-10-29T00:24:56.590Z,15.40
2022-10-29T00:29:58.308Z,15.30
2022-10-29T00:34:59.960Z,15.40
2022-10-29T00:40:01.718Z,15.00
2022-10-29T00:45:03.636Z,15.00
2022-10-29T00:50:09.875Z,14.90
2022-10-29T00:55:13.996Z,15.00
2022-10-29T01:00:16.997Z,15.20
2022-10-29T01:05:23.374Z,15.10
2022-10-29T01:10:33.025Z,15.40
2022-10-29T01:15:58.097Z,15.10
2022-10-29T01:21:18.824Z,14.70
2022-10-29T01:26:38.600Z,15.10
2022-10-29T01:31:55.691Z,14.90
2022-10-29T01:37:20.139Z,14.60
2022-10-29T01:42:44.131Z,14.50
2022-10-29T01:47:56.200Z,14.80
2022-10-29T01:52:58.452Z,15.00
2022-10-29T01:58:00.105Z,14.80
2022-10-29T02:03:42.319Z,15.00
2022-10-29T02:08:55.741Z,15.30
2022-10-29T02:14:10.457Z,14.40
2022-10-29T02:19:12.589Z,14.20
2022-10-29T02:24:14.255Z,14.60
2022-10-29T02:29:15.896Z,14.60
2022-10-29T02:34:17.603Z,14.80
2022-10-29T02:39:19.244Z,14.50
2022-10-29T02:44:20.870Z,14.60
2022-10-29T02:49:22.554Z,14.70
2022-10-29T02:54:24.260Z,14.60
2022-10-29T02:59:26.061Z,14.50
2022-10-29T03:04:27.810Z,14.30
2022-10-29T03:09:29.496Z,14.90
2022-10-29T03:14:31.232Z,14.50
2022-10-29T03:19:32.909Z,14.80
2022-10-29T03:24:34.552Z,14.40
2022-10-29T03:29:36.190Z,14.40
2022-10-29T03:34:37.875Z,14.20
2022-10-29T03:39:39.561Z,14.30
2022-10-29T03:44:41.270Z,14.50
2022-10-29T03:49:42.920Z,14.30
2022-10-29T03:54:44.606Z,14.20
2022-10-29T03:59:49.874Z,14.20
2022-10-29T04:04:54.094Z,13.80
2022-10-29T04:09:55.757Z,13.90
2022-10-29T04:14:57.428Z,14.60
2022-10-29T04:19:59.098Z,14.60
2022-10-29T04:30:23.682Z,14.20
2022-10-29T04:35:26.414Z,14.30
2022-10-29T04:40:28.094Z,14.00
2022-10-29T04:45:29.779Z,13.90
2022-10-29T04:50:32.927Z,13.90
2022-10-29T04:55:37.492Z,13.70
2022-10-29T05:00:39.374Z,13.80
2022-10-29T05:05:41.043Z,13.80
2022-10-29T05:10:42.743Z,13.80
2022-10-29T05:15:53.308Z,13.90
2022-10-29T05:20:56.221Z,14.10
2022-10-29T05:25:57.925Z,13.70
2022-10-29T05:31:01.138Z,13.90
2022-10-29T05:36:02.987Z,13.90
2022-10-29T05:41:04.828Z,13.70
2022-10-29T05:46:06.495Z,13.40
2022-10-29T05:51:08.197Z,13.80
2022-10-29T05:56:09.877Z,13.70
2022-10-29T06:01:12.144Z,13.90
2022-10-29T06:06:13.985Z,13.30
2022-10-29T06:11:15.744Z,13.30
2022-10-29T06:16:17.383Z,12.90
2022-10-29T06:21:19.062Z,12.90
2022-10-29T06:26:20.777Z,13.10
2022-10-29T06:31:22.554Z,13.10
2022-10-29T06:36:24.299Z,13.80
2022-10-29T06:41:25.977Z,13.60
2022-10-29T06:46:27.732Z,13.50
2022-10-29T06:51:29.473Z,13.60
2022-10-29T06:56:31.176Z,13.60
2022-10-29T07:01:32.951Z,13.70
2022-10-29T07:06:34.906Z,13.60
2022-10-29T07:11:36.562Z,13.70
2022-10-29T07:16:38.264Z,13.90
2022-10-29T07:21:39.934Z,14.10
2022-10-29T07:26:41.628Z,14.40
2022-10-29T07:31:43.297Z,14.60
2022-10-29T07:36:45.012Z,14.90
2022-10-29T07:41:46.709Z,14.90
2022-10-29T07:46:48.526Z,14.80
2022-10-29T07:51:50.208Z,15.00
2022-10-29T07:56:52.718Z,15.10
2022-10-29T08:01:54.524Z,15.10
2022-10-29T08:06:56.298Z,15.50
2022-10-29T08:11:57.999Z,15.70
2022-10-29T08:16:59.659Z,16.10
2022-10-29T08:22:01.335Z,16.10
2022-10-29T08:27:03.016Z,16.50
2022-10-29T08:32:04.945Z,16.70
2022-10-29T08:37:06.666Z,16.90
2022-10-29T08:42:11.284Z,17.20
2022-10-29T08:47:23.728Z,17.30
2022-10-29T08:52:30.597Z,17.50
2022-10-29T08:57:37.889Z,17.80
2022-10-29T09:02:39.835Z,18.10
2022-10-29T09:08:10.832Z,18.20
2022-10-29T09:13:21.275Z,18.50
2022-10-29T09:18:45.915Z,18.60
2022-10-29T09:24:05.853Z,18.60
2022-10-29T09:29:26.415Z,18.90
2022-10-29T09:34:39.766Z,19.20
2022-10-29T09:39:44.497Z,19.30
2022-10-29T09:44:59.544Z,19.50
2022-10-29T09:50:34.702Z,19.70
2022-10-29T09:55:44.830Z,20.00
2022-10-29T10:00:46.491Z,20.30
2022-10-29T10:06:04.478Z,20.70
2022-10-29T10:11:07.198Z,20.50
2022-10-29T10:16:09.501Z,21.10
2022-10-29T10:21:14.044Z,21.20
2022-10-29T10:26:34.071Z,21.40
2022-10-29T10:31:35.737Z,21.40
2022-10-29T10:36:42.008Z,21.70
2022-10-29T10:41:43.946Z,22.20
2022-10-29T10:46:46.367Z,22.40
2022-10-29T10:51:56.286Z,22.60
2022-10-29T10:57:26.286Z,22.70
2022-10-29T11:02:40.171Z,23.00
2022-10-29T11:07:56.473Z,22.80
2022-10-29T11:13:05.006Z,23.10
2022-10-29T11:18:18.394Z,23.20
2022-10-29T11:23:35.790Z,23.30
2022-10-29T11:28:53.999Z,23.50
2022-10-29T11:34:21.515Z,23.40
2022-10-29T11:39:58.878Z,23.80
2022-10-29T11:45:00.594Z,23.60
2022-10-29T11:50:16.000Z,23.90
2022-10-29T11:55:23.502Z,24.20
2022-10-29T12:00:27.489Z,24.50
2022-10-29T12:05:32.208Z,24.50
2022-10-29T12:10:46.082Z,24.40
2022-10-29T12:16:11.314Z,24.50
2022-10-29T12:21:30.152Z,24.40
2022-10-29T12:27:12.942Z,24.20
2022-10-29T12:32:25.176Z,24.20
2022-10-29T12:37:48.770Z,24.50
2022-10-29T12:42:52.238Z,24.80
2022-10-29T12:48:00.364Z,25.20
2022-10-29T12:53:20.922Z,25.00
2022-10-29T12:58:51.765Z,24.90
2022-10-29T13:03:53.666Z,25.40
2022-10-29T13:08:56.189Z,25.20
2022-10-29T13:14:00.381Z,25.10
2022-10-29T13:19:18.838Z,25.00
2022-10-29T13:24:21.272Z,25.40
2022-10-29T13:29:44.835Z,25.20
2022-10-29T13:34:51.325Z,24.80
2022-10-29T13:40:23.682Z,24.70
2022-10-29T13:45:25.854Z,24.80
2022-10-29T13:50:28.059Z,24.40
2022-10-29T13:55:34.007Z,24.90
2022-10-29T14:00:36.748Z,24.50
2022-10-29T14:05:51.592Z,24.70
2022-10-29T14:11:27.769Z,24.60
2022-10-29T14:16:31.952Z,24.70
2022-10-29T14:21:39.033Z,24.40
2022-10-29T14:26:42.754Z,24.20
2022-10-29T14:31:44.474Z,23.80
2022-10-29T14:36:47.749Z,23.70
2022-10-29T14:41:50.047Z,23.50
2022-10-29T14:47:05.573Z,23.70
2022-10-29T14:52:22.808Z,23.30
2022-10-29T14:57:28.155Z,23.10
2022-10-29T15:02:40.962Z,22.90
2022-10-29T15:07:43.049Z,22.80
2022-10-29T15:12:45.499Z,22.70
2022-10-29T15:18:16.343Z,22.60
2022-10-29T15:23:26.301Z,22.50
2022-10-29T15:28:31.410Z,22.20
2022-10-29T15:33:35.207Z,22.20
2022-10-29T15:38:59.581Z,22.10
2022-10-29T15:44:01.301Z,22.10
2022-10-29T15:49:03.221Z,22.30
2022-10-29T15:54:04.919Z,21.90
2022-10-29T15:59:10.635Z,21.50
2022-10-29T16:04:12.312Z,21.20
2022-10-29T16:09:19.721Z,21.10
2022-10-29T16:14:21.405Z,20.80
2022-10-29T16:19:23.091Z,20.70
2022-10-29T16:24:24.799Z,20.50
2022-10-29T16:29:26.505Z,20.40
2022-10-29T16:34:28.205Z,20.30
2022-10-29T16:39:29.957Z,20.10
2022-10-29T16:44:31.779Z,20.00
2022-10-29T16:49:33.623Z,19.90
2022-10-29T16:54:35.340Z,19.90
2022-10-29T16:59:37.043Z,19.60
2022-10-29T17:04:38.790Z,19.60
2022-10-29T17:09:40.583Z,19.40
2022-10-29T17:14:42.290Z,19.50
2022-10-29T17:19:44.238Z,19.40
2022-10-29T17:24:46.102Z,19.20
2022-10-29T17:29:48.109Z,19.10
2022-10-29T17:34:49.804Z,19.10
2022-10-29T17:39:51.558Z,18.90
2022-10-29T17:44:53.227Z,18.90
2022-10-29T17:49:55.005Z,18.80
2022-10-29T17:54:56.816Z,18.70
2022-10-29T17:59:58.582Z,18.50
2022-10-29T18:05:00.251Z,18.50
2022-10-29T18:10:01.943Z,18.50
2022-10-29T18:15:03.931Z,18.40
2022-10-29T18:20:07.991Z,18.30
2022-10-29T18:25:11.161Z,18.50
2022-10-29T18:30:13.018Z,18.20
2022-10-29T18:35:14.802Z,18.10
2022-10-29T18:40:16.506Z,18.10
2022-10-29T18:45:18.161Z,18.00
2022-10-29T18:50:19.842Z,18.00
2022-10-29T18:55:21.535Z,17.90
2022-10-29T19:00:23.382Z,17.80
2022-10-29T19:05:25.140Z,17.70
2022-10-29T19:10:26.881Z,17.80
2022-10-29T19:15:28.559Z,17.60
2022-10-29T19:20:32.917Z,17.70
2022-10-29T19:25:39.946Z,17.80
2022-10-29T19:30:41.671Z,17.80
2022-10-29T19:35:43.404Z,17.50
2022-10-29T19:40:45.075Z,17.30
2022-10-29T19:45:46.826Z,17.20
2022-10-29T19:50:53.102Z,17.10
2022-10-29T19:55:55.044Z,17.20
2022-10-29T20:01:07.150Z,17.30
2022-10-29T20:06:09.457Z,17.20
2022-10-29T20:11:11.244Z,17.30
2022-10-29T20:16:18.811Z,17.20
2022-10-29T20:21:20.518Z,17.20
2022-10-29T20:26:22.341Z,16.90
2022-10-29T20:31:29.993Z,17.00
2022-10-29T20:36:33.025Z,16.90
2022-10-29T20:41:34.798Z,17.10
2022-10-29T20:46:40.869Z,16.80
2022-10-29T20:51:45.280Z,16.60
2022-10-29T20:56:46.927Z,16.60
2022-10-29T21:01:48.704Z,16.60
2022-10-29T21:06:50.623Z,16.60
2022-10-29T21:11:52.335Z,16.50
2022-10-29T21:16:54.013Z,16.50
2022-10-29T21:21:55.699Z,16.50
2022-10-29T21:26:57.361Z,16.30
2022-10-29T21:31:59.096Z,16.40
2022-10-29T21:37:00.768Z,16.20
2022-10-29T21:42:02.469Z,16.10
2022-10-29T21:47:04.332Z,16.20
2022-10-29T21:52:05.997Z,16.20
2022-10-29T21:57:07.690Z,16.30
2022-10-29T22:02:09.569Z,16.10
2022-10-29T22:07:11.328Z,16.00
2022-10-29T22:12:13.009Z,16.20
2022-10-29T22:17:15.530Z,16.10
2022-10-29T22:22:17.205Z,16.00
2022-10-29T22:27:19.009Z,16.10
2022-10-29T22:32:20.740Z,16.20
2022-10-29T22:37:22.401Z,16.10
2022-10-29T22:42:24.058Z,16.10
2022-10-29T22:47:25.708Z,16.10
2022-10-29T22:52:27.441Z,16.00
2022-10-29T22:57:29.146Z,15.90
2022-10-29T23:02:30.942Z,16.00
2022-10-29T23:12:39.264Z,16.20
2022-10-29T23:17:40.922Z,16.00
2022-10-29T23:22:42.576Z,15.90
2022-10-29T23:27:44.248Z,15.80
2022-10-29T23:32:45.903Z,16.20
2022-10-29T23:37:47.543Z,15.90
2022-10-29T23:42:49.224Z,15.60
2022-10-29T23:47:50.973Z,15.40
2022-10-29T23:52:52.670Z,15.50
2022-10-29T23:57:54.340Z,15.50
